createdAt,value
2019-02-26T00:00:47.004Z,102404.72
2019-02-26T00:03:13.065Z,102403.98
2019-02-26T00:05:41.272Z,102395.90
2019-02-26T00:08:09.412Z,102405.12
2019-02-26T00:10:39.059Z,102401.41
2019-02-26T00:13:07.372Z,102403.01
2019-02-26T00:15:37.912Z,102408.67
2019-02-26T00:18:07.433Z,102404.34
2019-02-26T00:20:37.333Z,102404.34
2019-02-26T00:23:05.187Z,102399.11
2019-02-26T00:25:33.360Z,102393.77
2019-02-26T00:28:01.498Z,102406.39
2019-02-26T00:30:31.199Z,102400.74
2019-02-26T00:33:02.515Z,102407.03
2019-02-26T00:35:29.767Z,102409.53
2019-02-26T00:37:57.967Z,102410.25
2019-02-26T00:40:26.099Z,102409.90
2019-02-26T00:42:56.815Z,102404.83
2019-02-26T00:45:26.899Z,102412.91
2019-02-26T00:47:54.011Z,102400.88
2019-02-26T00:50:22.154Z,102402.42
2019-02-26T00:52:52.158Z,102402.09
2019-02-26T00:55:23.189Z,102398.56
2019-02-26T00:57:50.187Z,102396.72
2019-02-26T01:00:18.487Z,102390.42
2019-02-26T01:02:46.671Z,102390.66
2019-02-26T01:05:16.091Z,102383.75
2019-02-26T01:07:50.230Z,102382.77
2019-02-26T01:10:21.065Z,102386.27
2019-02-26T01:12:48.450Z,102383.95
2019-02-26T01:15:16.585Z,102383.03
2019-02-26T01:17:44.765Z,102389.86
2019-02-26T01:20:14.794Z,102389.63
2019-02-26T01:22:45.389Z,102398.13
2019-02-26T01:25:15.202Z,102391.34
2019-02-26T01:27:43.634Z,102383.53
2019-02-26T01:30:18.240Z,102379.45
2019-02-26T01:32:43.912Z,102368.08
2019-02-26T01:35:12.971Z,102367.48
2019-02-26T01:37:41.358Z,102365.97
2019-02-26T01:40:13.757Z,102365.69
2019-02-26T01:42:40.637Z,102371.97
2019-02-26T01:45:10.145Z,102371.09
2019-02-26T01:47:40.349Z,102369.30
2019-02-26T01:50:11.117Z,102356.97
2019-02-26T01:52:39.343Z,102348.56
2019-02-26T01:55:09.025Z,102339.59
2019-02-26T01:57:37.189Z,102340.52
2019-02-26T02:00:11.663Z,102344.69
2019-02-26T02:02:39.879Z,102340.27
2019-02-26T02:05:08.175Z,102327.06
2019-02-26T02:07:36.381Z,102328.58
2019-02-26T02:10:04.630Z,102335.27
2019-02-26T02:12:34.517Z,102329.19
2019-02-26T02:15:02.671Z,102337.00
2019-02-26T02:17:32.864Z,102337.20
2019-02-26T02:20:03.125Z,102332.05
2019-02-26T02:22:30.703Z,102325.78
2019-02-26T02:24:58.863Z,102324.98
2019-02-26T02:27:29.853Z,102318.06
2019-02-26T02:29:57.792Z,102318.80
2019-02-26T02:32:28.666Z,102329.54
2019-02-26T02:35:00.551Z,102330.83
2019-02-26T02:37:26.966Z,102325.17
2019-02-26T02:39:56.333Z,102328.27
2019-02-26T02:42:24.492Z,102331.69
2019-02-26T02:44:52.899Z,102322.72
2019-02-26T02:47:21.111Z,102317.29
2019-02-26T02:49:49.468Z,102319.58
2019-02-26T02:52:17.575Z,102307.25
2019-02-26T02:54:47.527Z,102308.56
2019-02-26T02:57:15.637Z,102308.75
2019-02-26T02:59:43.989Z,102313.85
2019-02-26T03:02:14.470Z,102309.23
2019-02-26T03:04:42.783Z,102315.52
2019-02-26T03:07:11.133Z,102312.27
2019-02-26T03:09:40.696Z,102315.28
2019-02-26T03:12:09.195Z,102313.62
2019-02-26T03:14:39.063Z,102318.34
2019-02-26T03:17:09.218Z,102318.98
2019-02-26T03:19:40.404Z,102317.44
2019-02-26T03:22:09.620Z,102317.60
2019-02-26T03:24:37.185Z,102324.99
2019-02-26T03:27:05.350Z,102322.23
2019-02-26T03:29:33.642Z,102330.33
2019-02-26T03:32:01.831Z,102327.61
2019-02-26T03:34:30.055Z,102328.14
2019-02-26T03:36:59.749Z,102328.06
2019-02-26T03:39:28.200Z,102325.19
2019-02-26T03:41:56.545Z,102326.84
2019-02-26T03:44:24.664Z,102328.85
2019-02-26T03:46:52.830Z,102319.22
2019-02-26T03:49:20.935Z,102328.34
2019-02-26T03:51:49.115Z,102331.44
2019-02-26T03:54:17.332Z,102320.97
2019-02-26T03:56:45.633Z,102316.97
2019-02-26T03:59:13.787Z,102315.48
2019-02-26T04:01:41.975Z,102317.91
2019-02-26T04:04:10.246Z,102318.48
2019-02-26T04:06:40.551Z,102326.73
2019-02-26T04:09:10.932Z,102321.91
2019-02-26T04:11:39.611Z,102316.98
2019-02-26T04:14:12.098Z,102319.96
2019-02-26T04:16:40.442Z,102327.84
2019-02-26T04:19:08.928Z,102329.82
2019-02-26T04:22:15.302Z,102324.78
2019-02-26T04:24:43.325Z,102324.63
2019-02-26T04:28:02.728Z,102329.86
2019-02-26T04:31:16.291Z,102335.00
2019-02-26T04:34:13.755Z,102333.53
2019-02-26T04:36:51.617Z,102333.38
2019-02-26T04:39:44.952Z,102342.67
2019-02-26T04:43:10.465Z,102333.36
2019-02-26T04:46:17.137Z,102327.19
2019-02-26T04:48:45.456Z,102336.91
2019-02-26T04:51:13.895Z,102340.80
2019-02-26T04:53:42.436Z,102340.64
2019-02-26T04:56:12.751Z,102344.30
2019-02-26T04:58:42.474Z,102341.47
2019-02-26T05:01:12.847Z,102337.30
2019-02-26T05:03:40.552Z,102343.01
2019-02-26T05:06:10.828Z,102337.28
2019-02-26T05:08:40.319Z,102331.69
2019-02-26T05:11:08.673Z,102324.89
2019-02-26T05:13:36.792Z,102318.54
2019-02-26T05:16:05.583Z,102323.30
2019-02-26T05:18:34.511Z,102321.64
2019-02-26T05:21:06.917Z,102316.19
2019-02-26T05:23:33.616Z,102321.44
2019-02-26T05:26:05.217Z,102305.62
2019-02-26T05:28:35.680Z,102302.58
2019-02-26T05:31:03.659Z,102311.21
2019-02-26T05:33:32.893Z,102309.48
2019-02-26T05:36:01.000Z,102306.08
2019-02-26T05:38:30.598Z,102312.61
2019-02-26T05:40:59.064Z,102324.95
2019-02-26T05:43:28.203Z,102319.78
2019-02-26T05:46:00.430Z,102318.65
2019-02-26T05:48:26.923Z,102319.70
2019-02-26T05:50:57.347Z,102320.89
2019-02-26T05:53:25.014Z,102314.52
2019-02-26T05:55:54.200Z,102307.14
2019-02-26T05:58:23.160Z,102320.86
2019-02-26T06:00:51.481Z,102311.87
2019-02-26T06:03:19.676Z,102309.36
2019-02-26T06:05:48.922Z,102310.12
2019-02-26T06:08:18.036Z,102308.84
2019-02-26T06:10:46.259Z,102314.30
2019-02-26T06:13:15.658Z,102311.09
2019-02-26T06:15:43.960Z,102325.78
2019-02-26T06:18:12.191Z,102326.77
2019-02-26T06:20:40.402Z,102325.08
2019-02-26T06:23:08.913Z,102326.46
2019-02-26T06:25:37.158Z,102329.20
2019-02-26T06:28:07.706Z,102332.30
2019-02-26T06:30:35.221Z,102326.87
2019-02-26T06:33:04.358Z,102331.52
2019-02-26T06:35:33.770Z,102324.67
2019-02-26T06:38:04.595Z,102327.94
2019-02-26T06:40:36.725Z,102339.23
2019-02-26T06:43:03.085Z,102344.12
2019-02-26T06:45:31.455Z,102346.32
2019-02-26T06:47:59.749Z,102344.48
2019-02-26T06:50:28.221Z,102348.58
2019-02-26T06:52:56.952Z,102343.91
2019-02-26T06:55:25.099Z,102350.36
2019-02-26T06:57:55.188Z,102351.98
2019-02-26T07:00:25.311Z,102342.72
2019-02-26T07:02:53.255Z,102342.86
2019-02-26T07:05:23.830Z,102343.08
2019-02-26T07:07:54.082Z,102340.67
2019-02-26T07:10:24.311Z,102345.48
2019-02-26T07:12:51.147Z,102340.17
2019-02-26T07:15:19.491Z,102344.87
2019-02-26T07:17:47.764Z,102349.41
2019-02-26T07:20:15.874Z,102351.96
2019-02-26T07:22:46.794Z,102344.48
2019-02-26T07:25:17.982Z,102348.26
2019-02-26T07:27:44.595Z,102347.96
2019-02-26T07:30:12.754Z,102352.84
2019-02-26T07:32:43.044Z,102346.61
2019-02-26T07:35:13.113Z,102341.80
2019-02-26T07:37:40.943Z,102340.12
2019-02-26T07:40:11.084Z,102337.77
2019-02-26T07:42:39.606Z,102342.39
2019-02-26T07:45:15.143Z,102339.76
2019-02-26T07:47:38.996Z,102339.39
2019-02-26T07:50:11.152Z,102342.08
2019-02-26T07:52:38.141Z,102341.87
2019-02-26T07:55:09.241Z,102343.06
2019-02-26T07:57:36.613Z,102349.14
2019-02-26T08:00:06.264Z,102348.76
2019-02-26T08:02:35.400Z,102344.20
2019-02-26T08:05:04.776Z,102353.84
2019-02-26T08:07:32.992Z,102345.68
2019-02-26T08:10:01.962Z,102340.04
2019-02-26T08:12:30.960Z,102345.82
2019-02-26T08:15:02.392Z,102353.78
2019-02-26T08:17:29.916Z,102355.66
2019-02-26T08:19:58.143Z,102353.03
2019-02-26T08:22:27.518Z,102349.71
2019-02-26T08:24:58.063Z,102344.84
2019-02-26T08:27:26.816Z,102338.93
2019-02-26T08:29:57.017Z,102342.78
2019-02-26T08:32:27.953Z,102333.05
2019-02-26T08:34:59.259Z,102336.58
2019-02-26T08:37:25.799Z,102335.26
2019-02-26T08:39:54.927Z,102338.33
2019-02-26T08:42:23.776Z,102337.99
2019-02-26T08:44:54.235Z,102336.22
2019-02-26T08:47:23.520Z,102338.71
2019-02-26T08:49:51.779Z,102337.84
2019-02-26T08:52:22.018Z,102328.92
2019-02-26T08:54:49.852Z,102324.28
2019-02-26T08:57:17.961Z,102329.01
2019-02-26T08:59:47.301Z,102328.82
2019-02-26T09:02:15.975Z,102329.28
2019-02-26T09:04:45.076Z,102315.38
2019-02-26T09:07:15.946Z,102314.69
2019-02-26T09:09:45.085Z,102317.56
2019-02-26T09:12:15.221Z,102315.81
2019-02-26T09:14:45.709Z,102316.48
2019-02-26T09:17:13.606Z,102317.89
2019-02-26T09:19:41.748Z,102309.38
2019-02-26T09:22:14.022Z,102310.12
2019-02-26T09:24:39.873Z,102308.34
2019-02-26T09:27:08.473Z,102312.99
2019-02-26T09:29:39.119Z,102309.05
2019-02-26T09:32:09.195Z,102306.03
2019-02-26T09:34:39.707Z,102309.62
2019-02-26T09:37:07.955Z,102307.80
2019-02-26T09:39:38.920Z,102312.22
2019-02-26T09:42:09.030Z,102325.06
2019-02-26T09:44:36.632Z,102316.08
2019-02-26T09:47:07.370Z,102318.70
2019-02-26T09:49:35.736Z,102318.20
2019-02-26T09:52:06.302Z,102319.44
2019-02-26T09:54:37.588Z,102319.23
2019-02-26T09:57:03.992Z,102321.59
2019-02-26T09:59:34.011Z,102330.41
2019-02-26T10:02:04.079Z,102323.16
2019-02-26T10:04:32.677Z,102321.14
2019-02-26T10:07:02.276Z,102323.80
2019-02-26T10:09:32.983Z,102319.27
2019-02-26T10:12:02.769Z,102323.20
2019-02-26T10:14:33.371Z,102312.33
2019-02-26T10:17:01.293Z,102316.89
2019-02-26T10:19:31.522Z,102311.16
2019-02-26T10:22:00.213Z,102310.39
2019-02-26T10:24:30.211Z,102305.96
2019-02-26T10:27:03.002Z,102304.53
2019-02-26T10:29:29.118Z,102314.98
2019-02-26T10:31:57.286Z,102312.42
2019-02-26T10:34:30.027Z,102311.09
2019-02-26T10:36:55.460Z,102305.94
2019-02-26T10:39:25.697Z,102302.41
2019-02-26T10:41:53.610Z,102296.00
2019-02-26T10:44:21.788Z,102300.81
2019-02-26T10:46:50.002Z,102299.35
2019-02-26T10:49:18.139Z,102298.33
2019-02-26T10:51:46.447Z,102294.16
2019-02-26T10:54:17.822Z,102292.03
2019-02-26T10:56:45.014Z,102288.12
2019-02-26T10:59:15.846Z,102290.09
2019-02-26T11:01:43.082Z,102288.99
2019-02-26T11:04:11.358Z,102286.73
2019-02-26T11:06:41.899Z,102293.16
2019-02-26T11:09:17.423Z,102293.77
2019-02-26T11:11:42.452Z,102297.08
2019-02-26T11:14:13.590Z,102296.86
2019-02-26T11:16:40.937Z,102300.23
2019-02-26T11:19:10.207Z,102301.73
2019-02-26T11:21:39.231Z,102305.38
2019-02-26T11:24:08.723Z,102299.89
2019-02-26T11:26:38.270Z,102299.66
2019-02-26T11:29:07.223Z,102299.87
2019-02-26T11:31:36.544Z,102288.69
2019-02-26T11:34:07.307Z,102287.51
2019-02-26T11:36:38.302Z,102286.85
2019-02-26T11:39:09.387Z,102279.72
2019-02-26T11:41:38.480Z,102276.73
2019-02-26T11:44:12.323Z,102277.05
2019-02-26T11:46:37.461Z,102271.42
2019-02-26T11:49:05.960Z,102270.39
2019-02-26T11:51:37.380Z,102265.27
2019-02-26T11:54:08.289Z,102263.48
2019-02-26T11:56:37.133Z,102262.07
2019-02-26T11:59:07.223Z,102268.27
2019-02-26T12:01:35.098Z,102271.32
2019-02-26T12:04:06.036Z,102269.48
2019-02-26T12:06:32.964Z,102261.78
2019-02-26T12:09:03.021Z,102264.98
2019-02-26T12:11:30.202Z,102263.40
2019-02-26T12:13:58.453Z,102256.78
2019-02-26T12:16:28.487Z,102257.20
2019-02-26T12:18:58.855Z,102254.58
2019-02-26T12:21:28.040Z,102247.50
2019-02-26T12:23:58.030Z,102254.60
2019-02-26T12:26:27.978Z,102251.29
2019-02-26T12:28:57.260Z,102246.81
2019-02-26T12:31:28.382Z,102252.75
2019-02-26T12:33:55.348Z,102251.48
2019-02-26T12:36:24.624Z,102055.42
2019-02-26T12:38:53.658Z,102244.84
2019-02-26T12:41:22.628Z,102242.34
2019-02-26T12:43:50.808Z,102246.59
2019-02-26T12:46:19.825Z,102236.16
2019-02-26T12:48:50.345Z,102234.13
2019-02-26T12:51:19.299Z,102235.57
2019-02-26T12:53:50.083Z,102229.34
2019-02-26T12:56:17.519Z,102236.06
2019-02-26T12:58:48.577Z,102229.78
2019-02-26T13:01:15.681Z,102224.70
2019-02-26T13:03:47.247Z,102223.87
2019-02-26T13:06:16.578Z,102220.23
2019-02-26T13:08:47.135Z,102222.23
2019-02-26T13:11:16.878Z,102217.72
2019-02-26T13:13:45.322Z,102210.30
2019-02-26T13:16:13.945Z,102200.52
2019-02-26T13:18:42.092Z,102200.88
2019-02-26T13:21:13.398Z,102195.60
2019-02-26T13:23:40.222Z,102201.81
2019-02-26T13:26:10.945Z,102190.19
2019-02-26T13:28:41.381Z,102185.03
2019-02-26T13:31:08.867Z,102177.08
2019-02-26T13:33:41.668Z,102184.55
2019-02-26T13:36:06.272Z,102182.16
2019-02-26T13:38:44.069Z,102180.30
2019-02-26T13:41:25.196Z,102178.56
2019-02-26T13:43:34.779Z,102176.06
2019-02-26T13:46:03.038Z,102183.64
2019-02-26T13:48:31.354Z,102180.56
2019-02-26T13:50:59.540Z,102179.37
2019-02-26T13:53:27.744Z,102173.70
2019-02-26T13:55:56.139Z,102173.13
2019-02-26T13:58:24.269Z,102175.56
2019-02-26T14:00:52.600Z,102174.38
2019-02-26T14:03:20.860Z,102165.70
2019-02-26T14:05:49.054Z,102166.13
2019-02-26T14:08:17.223Z,102163.16
2019-02-26T14:10:45.491Z,102160.41
2019-02-26T14:13:13.703Z,102159.56
2019-02-26T14:15:42.160Z,102164.66
2019-02-26T14:18:10.311Z,102164.86
2019-02-26T14:20:42.767Z,102155.80
2019-02-26T14:23:10.933Z,102141.92
2019-02-26T14:25:39.143Z,102143.16
2019-02-26T14:28:07.335Z,102129.45
2019-02-26T14:30:36.644Z,102131.63
2019-02-26T14:33:04.938Z,102136.91
2019-02-26T14:35:33.141Z,102133.29
2019-02-26T14:38:01.441Z,102129.41
2019-02-26T14:40:29.645Z,102130.97
2019-02-26T14:42:57.854Z,102125.67
2019-02-26T14:45:26.013Z,102126.73
2019-02-26T14:47:54.268Z,102138.34
2019-02-26T14:50:22.573Z,102132.70
2019-02-26T14:52:50.719Z,102127.31
2019-02-26T14:55:18.948Z,102121.83
2019-02-26T14:57:49.597Z,102119.25
2019-02-26T15:00:20.404Z,102116.17
2019-02-26T15:02:48.731Z,102102.70
2019-02-26T15:05:17.258Z,102097.16
2019-02-26T15:07:45.457Z,102100.07
2019-02-26T15:10:14.128Z,102084.88
2019-02-26T15:12:42.275Z,102090.66
2019-02-26T15:15:10.893Z,102085.93
2019-02-26T15:17:39.180Z,102090.95
2019-02-26T15:20:09.387Z,102082.33
2019-02-26T15:22:38.130Z,102078.78
2019-02-26T15:25:08.646Z,102078.91
2019-02-26T15:27:38.806Z,102075.42
2019-02-26T15:30:07.470Z,102072.73
2019-02-26T15:32:35.706Z,102074.62
2019-02-26T15:35:04.067Z,102069.67
2019-02-26T15:37:32.659Z,102063.42
2019-02-26T15:40:01.327Z,102069.63
2019-02-26T15:42:29.909Z,102069.30
2019-02-26T15:44:59.799Z,102073.67
2019-02-26T15:47:28.137Z,102070.17
2019-02-26T15:49:56.417Z,102066.20
2019-02-26T15:52:24.745Z,102068.06
2019-02-26T15:54:53.133Z,102067.70
2019-02-26T15:57:21.505Z,102067.76
2019-02-26T15:59:51.251Z,102080.03
2019-02-26T16:02:19.517Z,102075.86
2019-02-26T16:04:47.726Z,102072.72
2019-02-26T16:07:16.179Z,102066.73
2019-02-26T16:09:44.365Z,102067.95
2019-02-26T16:12:12.946Z,102058.55
2019-02-26T16:14:41.236Z,102068.55
2019-02-26T16:17:09.446Z,102064.56
2019-02-26T16:19:38.676Z,102061.76
2019-02-26T16:22:07.096Z,102062.81
2019-02-26T16:24:35.370Z,102056.81
2019-02-26T16:27:03.780Z,102053.05
2019-02-26T16:29:32.216Z,102057.63
2019-02-26T16:32:02.661Z,102057.64
2019-02-26T16:34:30.759Z,102057.45
2019-02-26T16:37:03.333Z,102062.66
2019-02-26T16:39:32.001Z,102056.69
2019-02-26T16:42:00.316Z,102053.00
2019-02-26T16:44:29.600Z,102061.16
2019-02-26T16:46:58.267Z,102061.16
2019-02-26T16:49:27.859Z,102059.67
2019-02-26T16:51:56.553Z,102059.67
2019-02-26T16:54:24.949Z,102063.34
2019-02-26T16:56:54.649Z,102064.37
2019-02-26T16:59:23.607Z,102081.16
2019-02-26T17:01:52.612Z,102076.73
2019-02-26T17:04:21.775Z,102076.66
2019-02-26T17:06:51.586Z,102085.80
2019-02-26T17:09:21.113Z,102085.92
2019-02-26T17:11:49.933Z,102080.80
2019-02-26T17:14:18.228Z,102091.36
2019-02-26T17:16:46.755Z,102094.78
2019-02-26T17:19:15.935Z,102090.90
2019-02-26T17:21:44.255Z,102096.28
2019-02-26T17:24:14.290Z,102093.60
2019-02-26T17:26:46.617Z,102093.39
2019-02-26T17:29:16.882Z,102092.73
2019-02-26T17:31:46.020Z,102096.51
2019-02-26T17:34:14.604Z,102092.23
2019-02-26T17:36:43.613Z,102095.53
2019-02-26T17:39:12.274Z,102097.44
2019-02-26T17:41:44.677Z,102099.38
2019-02-26T17:44:11.344Z,102099.55
2019-02-26T17:46:40.452Z,102104.61
2019-02-26T17:49:09.294Z,102102.47
2019-02-26T17:51:37.920Z,102100.77
2019-02-26T17:54:06.676Z,102095.55
2019-02-26T17:56:35.424Z,102098.78
2019-02-26T17:59:03.693Z,102099.33
2019-02-26T18:01:32.580Z,102106.98
2019-02-26T18:04:01.027Z,102104.80
2019-02-26T18:06:29.444Z,102104.01
2019-02-26T18:08:58.407Z,102100.56
2019-02-26T18:11:27.119Z,102100.60
2019-02-26T18:13:57.852Z,102105.52
2019-02-26T18:16:25.445Z,102105.55
2019-02-26T18:18:54.183Z,102106.48
2019-02-26T18:21:22.679Z,102110.06
2019-02-26T18:23:51.186Z,102113.66
2019-02-26T18:26:19.587Z,102106.51
2019-02-26T18:28:48.428Z,102104.30
2019-02-26T18:31:26.042Z,102098.95
2019-02-26T18:33:46.304Z,102100.27
2019-02-26T18:36:14.864Z,102101.14
2019-02-26T18:38:43.506Z,102098.05
2019-02-26T18:41:12.362Z,102095.39
2019-02-26T18:43:42.082Z,102090.39
2019-02-26T18:46:10.631Z,102092.17
2019-02-26T18:48:39.792Z,102091.75
2019-02-26T18:51:08.870Z,102102.88
2019-02-26T18:53:37.804Z,102097.50
2019-02-26T18:56:06.454Z,102095.23
2019-02-26T18:58:36.171Z,102095.19
2019-02-26T19:01:04.869Z,102097.34
2019-02-26T19:03:33.311Z,102099.05
2019-02-26T19:06:03.525Z,102100.17
2019-02-26T19:08:32.061Z,102101.93
2019-02-26T19:11:02.551Z,102094.48
2019-02-26T19:13:33.267Z,102101.06
2019-02-26T19:16:01.323Z,102101.90
2019-02-26T19:18:29.847Z,102099.18
2019-02-26T19:20:58.237Z,102102.22
2019-02-26T19:23:31.674Z,102099.55
2019-02-26T19:25:57.600Z,102095.37
2019-02-26T19:28:26.762Z,102095.70
2019-02-26T19:30:55.487Z,102100.11
2019-02-26T19:33:47.608Z,102096.02
2019-02-26T19:36:17.269Z,102095.48
2019-02-26T19:38:46.278Z,102099.38
2019-02-26T19:41:15.716Z,102098.91
2019-02-26T19:43:44.262Z,102101.93
2019-02-26T19:46:16.844Z,102105.84
2019-02-26T19:48:46.007Z,102102.18
2019-02-26T19:51:14.632Z,102104.25
2019-02-26T19:53:43.455Z,102101.56
2019-02-26T19:56:12.880Z,102104.00
2019-02-26T19:58:42.971Z,102099.95
2019-02-26T20:01:12.077Z,102105.27
2019-02-26T20:03:41.475Z,102115.83
2019-02-26T20:06:10.427Z,102119.67
2019-02-26T20:08:39.686Z,102112.94
2019-02-26T20:11:08.710Z,102116.81
2019-02-26T20:13:42.101Z,102113.47
2019-02-26T20:16:08.188Z,102110.81
2019-02-26T20:18:38.043Z,102112.66
2019-02-26T20:21:07.281Z,102115.48
2019-02-26T20:23:36.475Z,102114.08
2019-02-26T20:26:05.977Z,102114.40
2019-02-26T20:28:35.423Z,102117.25
2019-02-26T20:31:05.661Z,102111.98
2019-02-26T20:33:35.606Z,102110.55
2019-02-26T20:36:04.904Z,102111.73
2019-02-26T20:38:35.286Z,102109.84
2019-02-26T20:41:04.041Z,102108.83
2019-02-26T20:43:36.636Z,102104.72
2019-02-26T20:46:08.966Z,102102.16
2019-02-26T20:48:38.039Z,102098.04
2019-02-26T20:51:06.489Z,102091.63
2019-02-26T20:53:36.605Z,102090.13
2019-02-26T20:56:05.114Z,102087.48
2019-02-26T20:58:33.572Z,102086.49
2019-02-26T21:01:03.042Z,102091.41
2019-02-26T21:03:31.682Z,102092.89
2019-02-26T21:06:00.994Z,102099.66
2019-02-26T21:08:31.032Z,102097.30
2019-02-26T21:10:59.304Z,102094.10
2019-02-26T21:13:27.974Z,102094.45
2019-02-26T21:15:56.899Z,102089.10
2019-02-26T21:18:25.158Z,102088.30
2019-02-26T21:20:53.823Z,102085.47
2019-02-26T21:23:22.475Z,102079.25
2019-02-26T21:25:51.631Z,102075.01
2019-02-26T21:28:21.081Z,102082.51
2019-02-26T21:30:49.312Z,102078.63
2019-02-26T21:33:18.629Z,102076.17
2019-02-26T21:35:47.038Z,102083.88
2019-02-26T21:38:15.719Z,102079.53
2019-02-26T21:40:44.088Z,102081.56
2019-02-26T21:43:12.534Z,102081.89
2019-02-26T21:45:41.012Z,102080.80
2019-02-26T21:48:09.384Z,102080.73
2019-02-26T21:50:38.087Z,102078.47
2019-02-26T21:53:06.524Z,102072.06
2019-02-26T21:55:43.934Z,102071.88
2019-02-26T21:58:04.824Z,102071.77
2019-02-26T22:00:33.580Z,102063.84
2019-02-26T22:03:01.913Z,102070.63
2019-02-26T22:05:30.394Z,102067.30
2019-02-26T22:07:58.667Z,102067.02
2019-02-26T22:10:26.891Z,102069.22
2019-02-26T22:12:56.877Z,102073.95
2019-02-26T22:15:25.098Z,102068.92
2019-02-26T22:17:57.828Z,102071.77
2019-02-26T22:20:35.521Z,102064.59
2019-02-26T22:22:53.427Z,102056.78
2019-02-26T22:25:21.674Z,102057.14
2019-02-26T22:27:49.868Z,102057.47
2019-02-26T22:30:21.444Z,102054.93
2019-02-26T22:32:48.022Z,102056.90
2019-02-26T22:35:16.332Z,102053.68
2019-02-26T22:37:44.534Z,102056.51
2019-02-26T22:40:13.062Z,102051.53
2019-02-26T22:42:41.941Z,102050.78
2019-02-26T22:45:10.600Z,102053.69
2019-02-26T22:47:40.590Z,102041.36
2019-02-26T22:50:10.216Z,102045.18
2019-02-26T22:52:38.350Z,102042.28
2019-02-26T22:55:07.048Z,102043.15
2019-02-26T22:57:35.208Z,102044.08
2019-02-26T23:00:03.406Z,102037.22
2019-02-26T23:02:32.135Z,102034.95
2019-02-26T23:05:00.280Z,102029.61
2019-02-26T23:07:28.423Z,102029.50
2019-02-26T23:09:57.099Z,102029.41
2019-02-26T23:12:25.622Z,102031.05
2019-02-26T23:14:54.124Z,102026.14
2019-02-26T23:17:24.725Z,102023.48
2019-02-26T23:19:52.402Z,102022.78
2019-02-26T23:22:20.946Z,102015.46
2019-02-26T23:24:50.619Z,102016.48
2019-02-26T23:27:18.857Z,102018.23
2019-02-26T23:29:47.032Z,102015.97
2019-02-26T23:32:15.298Z,101999.33
2019-02-26T23:34:43.431Z,101995.59
2019-02-26T23:37:11.889Z,101997.66
2019-02-26T23:39:40.052Z,102001.62
2019-02-26T23:42:08.216Z,102007.13
2019-02-26T23:44:36.408Z,102002.13
2019-02-26T23:47:04.531Z,102003.27
2019-02-26T23:49:32.805Z,102003.55
2019-02-26T23:52:01.290Z,102009.53
2019-02-26T23:54:29.526Z,102015.50
2019-02-26T23:56:57.786Z,102002.68
2019-02-26T23:59:26.258Z,102011.09
